Terminal Aerodrome Forecast
Issued by NWS Mt. Holly, NJ

Home | Current Version | Previous Version | Text Only | Print | Product List | Glossary On
Versions: 1 2 3 4 5 6 7 8 9 10 11 12 13 14 15 16 17 18 19 20 21 22 23 24
183
FTUS41 KPHI 212336
TAFPHL
TAF
KPHL 212336Z 2200/2306 19006KT P6SM SCT040 BKN250
     FM220600 21004KT P6SM BKN100
     FM221300 21008KT P6SM SCT100
     FM221700 22012KT P6SM SCT050
     FM230000 21012KT P6SM BKN060 PROB30 2300/2306 4SM -TSRA
      OVC025CB=

USA.gov is the U.S. government's official web portal to all federal, state and local government web resources and services.